createdAt,value
2023-05-11T00:00:12.124Z,88147.00
2023-05-11T00:01:12.112Z,88145.00
2023-05-11T00:02:12.138Z,88147.00
2023-05-11T00:03:12.170Z,88145.00
2023-05-11T00:04:12.064Z,88145.00
2023-05-11T00:05:11.989Z,88145.00
2023-05-11T00:06:11.961Z,88145.00
2023-05-11T00:07:11.936Z,88143.00
2023-05-11T00:08:12.512Z,88145.00
2023-05-11T00:09:11.933Z,88139.00
2023-05-11T00:10:11.907Z,88137.00
2023-05-11T00:11:11.834Z,88136.00
2023-05-11T00:12:11.802Z,88139.00
2023-05-11T00:13:11.836Z,88137.00
2023-05-11T00:14:11.811Z,88136.00
2023-05-11T00:15:11.838Z,88136.00
2023-05-11T00:16:11.935Z,88136.00
2023-05-11T00:17:11.837Z,88134.00
2023-05-11T00:18:11.891Z,88132.00
2023-05-11T00:19:11.714Z,88134.00
2023-05-11T00:20:11.695Z,88134.00
2023-05-11T00:21:11.686Z,88132.00
2023-05-11T00:22:11.650Z,88132.00
2023-05-11T00:23:11.664Z,88130.00
2023-05-11T00:24:11.618Z,88130.00
2023-05-11T00:25:11.595Z,88130.00
2023-05-11T00:26:11.595Z,88132.00
2023-05-11T00:27:14.504Z,88130.00
2023-05-11T00:28:11.560Z,88128.00
2023-05-11T00:29:11.608Z,88126.00
2023-05-11T00:30:11.529Z,88128.00
2023-05-11T00:31:11.591Z,88128.00
2023-05-11T00:32:11.516Z,88126.00
2023-05-11T00:33:11.505Z,88124.00
2023-05-11T00:34:11.527Z,88124.00
2023-05-11T00:35:11.525Z,88124.00
2023-05-11T00:36:11.439Z,88124.00
2023-05-11T00:37:11.413Z,88126.00
2023-05-11T00:38:11.381Z,88124.00
2023-05-11T00:39:11.363Z,88122.00
2023-05-11T00:40:11.335Z,88120.00
2023-05-11T00:41:11.340Z,88120.00
2023-05-11T00:42:11.352Z,88118.00
2023-05-11T00:43:11.329Z,88118.00
2023-05-11T00:44:11.345Z,88120.00
2023-05-11T00:45:11.997Z,88116.00
2023-05-11T00:46:11.261Z,88120.00
2023-05-11T00:47:11.268Z,88118.00
2023-05-11T00:48:11.320Z,88118.00
2023-05-11T00:49:11.213Z,88118.00
2023-05-11T00:50:11.172Z,88120.00
2023-05-11T00:51:11.156Z,88118.00
2023-05-11T00:52:11.172Z,88118.00
2023-05-11T00:53:11.141Z,88120.00
2023-05-11T00:54:11.170Z,88120.00
2023-05-11T00:55:11.092Z,88120.00
2023-05-11T00:56:11.102Z,88120.00
2023-05-11T00:57:11.058Z,88120.00
2023-05-11T00:58:11.077Z,88120.00
2023-05-11T00:59:11.122Z,88116.00
2023-05-11T01:00:11.074Z,88118.00
2023-05-11T01:01:11.099Z,88114.00
2023-05-11T01:02:11.053Z,88116.00
2023-05-11T01:03:11.047Z,88116.00
2023-05-11T01:04:11.019Z,88118.00
2023-05-11T01:05:11.001Z,88120.00
2023-05-11T01:06:10.989Z,88120.00
2023-05-11T01:07:10.965Z,88118.00
2023-05-11T01:08:10.937Z,88118.00
2023-05-11T01:09:10.944Z,88120.00
2023-05-11T01:10:11.518Z,88116.00
2023-05-11T01:11:10.974Z,88116.00
2023-05-11T01:12:10.914Z,88116.00
2023-05-11T01:13:10.885Z,88116.00
2023-05-11T01:14:11.014Z,88114.00
2023-05-11T01:15:10.852Z,88114.00
2023-05-11T01:16:10.891Z,88110.00
2023-05-11T01:17:10.849Z,88112.00
2023-05-11T01:18:10.904Z,88112.00
2023-05-11T01:19:10.948Z,88114.00
2023-05-11T01:20:10.922Z,88114.00
2023-05-11T01:21:10.943Z,88114.00
2023-05-11T01:22:10.962Z,88116.00
2023-05-11T01:23:10.995Z,88114.00
2023-05-11T01:24:11.032Z,88116.00
2023-05-11T01:25:11.047Z,88118.00
2023-05-11T01:26:11.070Z,88118.00
2023-05-11T01:27:11.084Z,88118.00
2023-05-11T01:28:11.105Z,88120.00
2023-05-11T01:29:11.152Z,88120.00
2023-05-11T01:30:11.168Z,88118.00
2023-05-11T01:31:11.191Z,88114.00
2023-05-11T01:32:11.257Z,88116.00
2023-05-11T01:33:11.245Z,88116.00
2023-05-11T01:34:11.260Z,88112.00
2023-05-11T01:35:11.273Z,88114.00
2023-05-11T01:36:11.304Z,88114.00
2023-05-11T01:37:11.318Z,88116.00
2023-05-11T01:38:11.323Z,88112.00
2023-05-11T01:39:11.371Z,88112.00
2023-05-11T01:40:11.367Z,88114.00
2023-05-11T01:41:11.366Z,88114.00
2023-05-11T01:42:11.409Z,88114.00
2023-05-11T01:43:11.414Z,88116.00
2023-05-11T01:44:11.448Z,88116.00
2023-05-11T01:45:11.455Z,88114.00
2023-05-11T01:46:11.493Z,88116.00
2023-05-11T01:47:11.504Z,88116.00
2023-05-11T01:48:11.555Z,88116.00
2023-05-11T01:49:11.556Z,88114.00
2023-05-11T01:50:11.610Z,88118.00
2023-05-11T01:51:11.619Z,88116.00
2023-05-11T01:52:11.698Z,88118.00
2023-05-11T01:53:11.692Z,88114.00
2023-05-11T01:54:11.762Z,88114.00
2023-05-11T01:55:11.716Z,88112.00
2023-05-11T01:56:11.739Z,88116.00
2023-05-11T01:57:11.800Z,88114.00
2023-05-11T01:58:11.792Z,88116.00
2023-05-11T01:59:11.805Z,88116.00
2023-05-11T02:00:11.815Z,88116.00
2023-05-11T02:01:11.883Z,88116.00
2023-05-11T02:02:11.901Z,88118.00
2023-05-11T02:03:12.127Z,88116.00
2023-05-11T02:04:12.059Z,88118.00
2023-05-11T02:05:11.976Z,88118.00
2023-05-11T02:06:11.961Z,88116.00
2023-05-11T02:07:12.023Z,88122.00
2023-05-11T02:08:12.028Z,88124.00
2023-05-11T02:09:12.034Z,88122.00
2023-05-11T02:10:12.433Z,88124.00
2023-05-11T02:11:12.099Z,88120.00
2023-05-11T02:12:12.119Z,88120.00
2023-05-11T02:13:12.191Z,88122.00
2023-05-11T02:14:12.177Z,88118.00
2023-05-11T02:15:12.208Z,88118.00
2023-05-11T02:16:12.271Z,88114.00
2023-05-11T02:17:12.251Z,88114.00
2023-05-11T02:18:12.286Z,88114.00
2023-05-11T02:19:12.338Z,88114.00
2023-05-11T02:20:12.334Z,88116.00
2023-05-11T02:21:12.364Z,88116.00
2023-05-11T02:22:12.396Z,88116.00
2023-05-11T02:23:12.401Z,88118.00
2023-05-11T02:24:12.448Z,88120.00
2023-05-11T02:25:12.484Z,88114.00
2023-05-11T02:26:12.499Z,88118.00
2023-05-11T02:27:12.502Z,88114.00
2023-05-11T02:28:12.537Z,88112.00
2023-05-11T02:29:12.574Z,88114.00
2023-05-11T02:30:12.647Z,88114.00
2023-05-11T02:31:12.666Z,88114.00
2023-05-11T02:32:12.638Z,88116.00
2023-05-11T02:33:12.681Z,88114.00
2023-05-11T02:34:12.721Z,88116.00
2023-05-11T02:35:12.730Z,88116.00
2023-05-11T02:36:12.762Z,88114.00
2023-05-11T02:37:12.784Z,88116.00
2023-05-11T02:38:12.808Z,88112.00
2023-05-11T02:39:12.860Z,88110.00
2023-05-11T02:40:12.869Z,88106.00
2023-05-11T02:41:12.859Z,88104.00
2023-05-11T02:42:12.897Z,88104.00
2023-05-11T02:43:12.928Z,88106.00
2023-05-11T02:44:12.940Z,88106.00
2023-05-11T02:45:13.019Z,88104.00
2023-05-11T02:46:13.009Z,88106.00
2023-05-11T02:47:12.979Z,88102.00
2023-05-11T02:48:13.015Z,88102.00
2023-05-11T02:49:13.029Z,88102.00
2023-05-11T02:50:13.058Z,88102.00
2023-05-11T02:51:13.124Z,88098.00
2023-05-11T02:52:13.114Z,88096.00
2023-05-11T02:53:13.191Z,88098.00
2023-05-11T02:54:13.159Z,88098.00
2023-05-11T02:55:13.199Z,88100.00
2023-05-11T02:56:13.230Z,88098.00
2023-05-11T02:57:13.237Z,88100.00
2023-05-11T02:58:13.317Z,88100.00
2023-05-11T02:59:13.339Z,88098.00
2023-05-11T03:00:13.359Z,88098.00
2023-05-11T03:01:13.597Z,88094.00
2023-05-11T03:02:13.511Z,88094.00
2023-05-11T03:03:13.531Z,88092.00
2023-05-11T03:04:13.510Z,88094.00
2023-05-11T03:05:13.560Z,88092.00
2023-05-11T03:06:13.586Z,88090.00
2023-05-11T03:07:13.629Z,88094.00
2023-05-11T03:08:13.688Z,88092.00
2023-05-11T03:09:13.743Z,88092.00
2023-05-11T03:10:13.832Z,88092.00
2023-05-11T03:11:13.809Z,88092.00
2023-05-11T03:12:13.897Z,88090.00
2023-05-11T03:13:13.914Z,88086.00
2023-05-11T03:14:13.986Z,88088.00
2023-05-11T03:15:14.045Z,88088.00
2023-05-11T03:16:14.132Z,88084.00
2023-05-11T03:17:14.123Z,88086.00
2023-05-11T03:18:14.209Z,88086.00
2023-05-11T03:19:14.213Z,88086.00
2023-05-11T03:20:14.266Z,88086.00
2023-05-11T03:21:14.309Z,88086.00
2023-05-11T03:22:14.379Z,88084.00
2023-05-11T03:23:14.456Z,88086.00
2023-05-11T03:24:14.597Z,88086.00
2023-05-11T03:25:14.556Z,88084.00
2023-05-11T03:26:14.603Z,88084.00
2023-05-11T03:27:14.672Z,88082.00
2023-05-11T03:28:14.720Z,88081.00
2023-05-11T03:29:14.772Z,88079.00
2023-05-11T03:30:14.841Z,88082.00
2023-05-11T03:31:14.891Z,88082.00
2023-05-11T03:32:15.021Z,88084.00
2023-05-11T03:33:15.000Z,88082.00
2023-05-11T03:34:15.078Z,88082.00
2023-05-11T03:35:15.130Z,88079.00
2023-05-11T03:36:15.176Z,88081.00
2023-05-11T03:37:15.235Z,88077.00
2023-05-11T03:38:15.299Z,88077.00
2023-05-11T03:39:15.380Z,88073.00
2023-05-11T03:40:15.471Z,88077.00
2023-05-11T03:41:15.501Z,88073.00
2023-05-11T03:42:15.574Z,88075.00
2023-05-11T03:43:15.610Z,88077.00
2023-05-11T03:44:15.587Z,88075.00
2023-05-11T03:45:15.589Z,88073.00
2023-05-11T03:46:15.656Z,88073.00
2023-05-11T03:47:15.558Z,88071.00
2023-05-11T03:48:15.581Z,88071.00
2023-05-11T03:49:15.554Z,88069.00
2023-05-11T03:50:15.647Z,88069.00
2023-05-11T03:51:15.543Z,88069.00
2023-05-11T03:52:15.545Z,88067.00
2023-05-11T03:53:15.582Z,88067.00
2023-05-11T03:54:15.594Z,88069.00
2023-05-11T03:55:15.644Z,88071.00
2023-05-11T03:56:15.745Z,88073.00
2023-05-11T03:57:15.756Z,88073.00
2023-05-11T03:58:15.797Z,88069.00
2023-05-11T03:59:15.858Z,88071.00
2023-05-11T04:00:16.039Z,88071.00
2023-05-11T04:01:15.973Z,88069.00
2023-05-11T04:02:16.041Z,88067.00
2023-05-11T04:03:16.160Z,88061.00
2023-05-11T04:04:16.163Z,88063.00
2023-05-11T04:05:16.216Z,88061.00
2023-05-11T04:06:16.299Z,88061.00
2023-05-11T04:07:16.299Z,88063.00
2023-05-11T04:08:16.358Z,88061.00
2023-05-11T04:09:16.336Z,88055.00
2023-05-11T04:10:16.536Z,88063.00
2023-05-11T04:11:16.326Z,88059.00
2023-05-11T04:12:16.335Z,88061.00
2023-05-11T04:13:16.328Z,88065.00
2023-05-11T04:14:16.334Z,88063.00
2023-05-11T04:15:16.341Z,88061.00
2023-05-11T04:16:16.347Z,88063.00
2023-05-11T04:17:16.341Z,88063.00
2023-05-11T04:18:16.411Z,88063.00
2023-05-11T04:19:16.456Z,88065.00
2023-05-11T04:20:16.642Z,88067.00
2023-05-11T04:21:16.558Z,88065.00
2023-05-11T04:22:16.603Z,88067.00
2023-05-11T04:23:16.688Z,88061.00
2023-05-11T04:24:16.736Z,88059.00
2023-05-11T04:25:16.847Z,88059.00
2023-05-11T04:26:16.845Z,88059.00
2023-05-11T04:27:16.971Z,88057.00
2023-05-11T04:28:17.012Z,88061.00
2023-05-11T04:29:17.022Z,88057.00
2023-05-11T04:30:17.897Z,88059.00
2023-05-11T04:31:17.181Z,88059.00
2023-05-11T04:32:17.193Z,88063.00
2023-05-11T04:33:17.251Z,88063.00
2023-05-11T04:34:17.306Z,88061.00
2023-05-11T04:35:17.419Z,88063.00
2023-05-11T04:36:17.406Z,88063.00
2023-05-11T04:37:17.451Z,88063.00
2023-05-11T04:38:17.502Z,88063.00
2023-05-11T04:39:17.550Z,88061.00
2023-05-11T04:40:17.723Z,88061.00
2023-05-11T04:41:17.535Z,88061.00
2023-05-11T04:42:17.528Z,88065.00
2023-05-11T04:43:17.518Z,88065.00
2023-05-11T04:44:17.523Z,88065.00
2023-05-11T04:45:17.530Z,88065.00
2023-05-11T04:46:17.564Z,88065.00
2023-05-11T04:47:17.491Z,88065.00
2023-05-11T04:48:20.581Z,88061.00
2023-05-11T04:49:17.480Z,88063.00
2023-05-11T04:50:17.724Z,88063.00
2023-05-11T04:51:17.495Z,88065.00
2023-05-11T04:52:17.474Z,88063.00
2023-05-11T04:53:17.472Z,88065.00
2023-05-11T04:54:17.484Z,88063.00
2023-05-11T04:55:17.507Z,88065.00
2023-05-11T04:56:17.485Z,88063.00
2023-05-11T04:57:17.456Z,88063.00
2023-05-11T04:58:17.454Z,88063.00
2023-05-11T04:59:17.453Z,88065.00
2023-05-11T05:00:17.707Z,88063.00
2023-05-11T05:01:17.443Z,88065.00
2023-05-11T05:02:17.448Z,88065.00
2023-05-11T05:03:17.442Z,88065.00
2023-05-11T05:04:17.569Z,88065.00
2023-05-11T05:05:17.435Z,88069.00
2023-05-11T05:06:17.429Z,88069.00
2023-05-11T05:07:17.427Z,88069.00
2023-05-11T05:08:17.401Z,88069.00
2023-05-11T05:09:17.408Z,88073.00
2023-05-11T05:10:17.606Z,88073.00
2023-05-11T05:11:17.384Z,88073.00
2023-05-11T05:12:17.377Z,88075.00
2023-05-11T05:13:17.379Z,88075.00
2023-05-11T05:14:17.379Z,88075.00
2023-05-11T05:15:17.386Z,88077.00
2023-05-11T05:16:17.444Z,88073.00
2023-05-11T05:17:17.384Z,88077.00
2023-05-11T05:18:17.428Z,88084.00
2023-05-11T05:19:17.403Z,88082.00
2023-05-11T05:20:17.618Z,88088.00
2023-05-11T05:21:17.379Z,88081.00
2023-05-11T05:22:17.389Z,88084.00
2023-05-11T05:23:17.374Z,88082.00
2023-05-11T05:24:17.392Z,88086.00
2023-05-11T05:25:17.362Z,88084.00
2023-05-11T05:26:17.366Z,88084.00
2023-05-11T05:27:17.383Z,88082.00
2023-05-11T05:28:17.368Z,88084.00
2023-05-11T05:29:17.407Z,88081.00
2023-05-11T05:30:17.745Z,88084.00
2023-05-11T05:31:17.376Z,88086.00
2023-05-11T05:32:17.383Z,88084.00
2023-05-11T05:33:19.563Z,88084.00
2023-05-11T05:34:18.336Z,88084.00
2023-05-11T05:35:18.016Z,88084.00
2023-05-11T05:36:17.493Z,88086.00
2023-05-11T05:37:17.468Z,88086.00
2023-05-11T05:38:17.446Z,88086.00
2023-05-11T05:39:17.465Z,88086.00
2023-05-11T05:40:17.548Z,88088.00
2023-05-11T05:41:17.513Z,88094.00
2023-05-11T05:42:17.432Z,88088.00
2023-05-11T05:43:17.462Z,88088.00
2023-05-11T05:44:17.488Z,88088.00
2023-05-11T05:45:17.484Z,88090.00
2023-05-11T05:46:17.501Z,88088.00
2023-05-11T05:47:17.441Z,88090.00
2023-05-11T05:48:17.435Z,88090.00
2023-05-11T05:49:17.576Z,88090.00
2023-05-11T05:50:17.524Z,88090.00
2023-05-11T05:51:17.395Z,88086.00
2023-05-11T05:52:17.410Z,88090.00
2023-05-11T05:53:17.625Z,88086.00
2023-05-11T05:54:17.493Z,88088.00
2023-05-11T05:55:17.674Z,88086.00
2023-05-11T05:56:17.360Z,88088.00
2023-05-11T05:57:17.342Z,88090.00
2023-05-11T05:58:17.387Z,88086.00
2023-05-11T05:59:17.356Z,88090.00
2023-05-11T06:00:17.575Z,88090.00
2023-05-11T06:01:17.345Z,88092.00
2023-05-11T06:02:17.385Z,88096.00
2023-05-11T06:03:17.591Z,88096.00
2023-05-11T06:04:17.378Z,88096.00
2023-05-11T06:05:17.639Z,88096.00
2023-05-11T06:06:17.351Z,88096.00
2023-05-11T06:07:17.399Z,88098.00
2023-05-11T06:08:18.182Z,88098.00
2023-05-11T06:09:17.305Z,88098.00
2023-05-11T06:10:19.555Z,88096.00
2023-05-11T06:11:18.129Z,88094.00
2023-05-11T06:12:17.294Z,88098.00
2023-05-11T06:13:17.297Z,88098.00
2023-05-11T06:14:17.346Z,88098.00
2023-05-11T06:15:17.299Z,88098.00
2023-05-11T06:16:17.305Z,88096.00
2023-05-11T06:17:18.228Z,88096.00
2023-05-11T06:18:17.392Z,88096.00
2023-05-11T06:19:17.307Z,88094.00
2023-05-11T06:20:17.511Z,88096.00
2023-05-11T06:21:17.320Z,88092.00
2023-05-11T06:22:17.331Z,88094.00
2023-05-11T06:23:17.317Z,88090.00
2023-05-11T06:24:17.369Z,88088.00
2023-05-11T06:25:17.404Z,88088.00
2023-05-11T06:26:17.426Z,88088.00
2023-05-11T06:27:18.367Z,88086.00
2023-05-11T06:28:17.532Z,88088.00
2023-05-11T06:29:17.612Z,88088.00
2023-05-11T06:30:17.848Z,88086.00
2023-05-11T06:31:17.709Z,88090.00
2023-05-11T06:32:17.719Z,88088.00
2023-05-11T06:33:17.933Z,88088.00
2023-05-11T06:34:17.807Z,88090.00
2023-05-11T06:35:18.647Z,88090.00
2023-05-11T06:36:17.912Z,88090.00
2023-05-11T06:37:17.930Z,88090.00
2023-05-11T06:38:17.982Z,88090.00
2023-05-11T06:39:18.026Z,88090.00
2023-05-11T06:40:18.265Z,88092.00
2023-05-11T06:41:18.203Z,88090.00
2023-05-11T06:42:18.135Z,88090.00
2023-05-11T06:43:18.148Z,88096.00
2023-05-11T06:44:18.112Z,88088.00
2023-05-11T06:45:18.165Z,88090.00
2023-05-11T06:46:18.199Z,88088.00
2023-05-11T06:47:18.096Z,88092.00
2023-05-11T06:48:18.125Z,88090.00
2023-05-11T06:49:18.110Z,88092.00
2023-05-11T06:50:20.856Z,88094.00
2023-05-11T06:51:18.137Z,88090.00
2023-05-11T06:52:18.092Z,88090.00
2023-05-11T06:53:18.171Z,88092.00
2023-05-11T06:54:18.127Z,88092.00
2023-05-11T06:55:18.160Z,88086.00
2023-05-11T06:56:18.149Z,88088.00
2023-05-11T06:57:18.143Z,88088.00
2023-05-11T06:58:18.110Z,88084.00
2023-05-11T06:59:18.133Z,88084.00
2023-05-11T07:00:18.554Z,88084.00
2023-05-11T07:01:18.171Z,88082.00
2023-05-11T07:02:18.141Z,88084.00
2023-05-11T07:03:18.144Z,88082.00
2023-05-11T07:04:18.172Z,88082.00
2023-05-11T07:05:18.116Z,88084.00
2023-05-11T07:06:18.151Z,88084.00
2023-05-11T07:07:18.097Z,88084.00
2023-05-11T07:08:18.098Z,88086.00
2023-05-11T07:09:18.110Z,88082.00
2023-05-11T07:10:18.320Z,88084.00
2023-05-11T07:11:18.105Z,88084.00
2023-05-11T07:12:18.082Z,88084.00
2023-05-11T07:13:18.111Z,88086.00
2023-05-11T07:14:18.107Z,88082.00
2023-05-11T07:15:18.127Z,88084.00
2023-05-11T07:16:18.168Z,88081.00
2023-05-11T07:17:18.086Z,88082.00
2023-05-11T07:18:18.136Z,88084.00
2023-05-11T07:19:18.087Z,88086.00
2023-05-11T07:20:18.497Z,88090.00
2023-05-11T07:21:18.165Z,88088.00
2023-05-11T07:22:18.065Z,88086.00
2023-05-11T07:23:18.065Z,88084.00
2023-05-11T07:24:18.265Z,88082.00
2023-05-11T07:25:18.061Z,88086.00
2023-05-11T07:26:18.172Z,88086.00
2023-05-11T07:27:18.068Z,88086.00
2023-05-11T07:28:18.093Z,88084.00
2023-05-11T07:29:18.062Z,88084.00
2023-05-11T07:30:18.948Z,88084.00
2023-05-11T07:31:18.089Z,88086.00
2023-05-11T07:32:18.092Z,88086.00
2023-05-11T07:33:18.142Z,88086.00
2023-05-11T07:34:18.071Z,88086.00
2023-05-11T07:35:18.073Z,88086.00
2023-05-11T07:36:18.119Z,88086.00
2023-05-11T07:37:18.051Z,88088.00
2023-05-11T07:38:18.105Z,88086.00
2023-05-11T07:39:18.096Z,88092.00
2023-05-11T07:40:18.339Z,88088.00
2023-05-11T07:41:18.190Z,88086.00
2023-05-11T07:42:18.229Z,88088.00
2023-05-11T07:43:18.371Z,88094.00
2023-05-11T07:44:18.414Z,88086.00
2023-05-11T07:45:18.427Z,88090.00
2023-05-11T07:46:18.522Z,88092.00
2023-05-11T07:47:18.477Z,88090.00
2023-05-11T07:48:18.564Z,88090.00
2023-05-11T07:49:22.915Z,88090.00
2023-05-11T07:50:19.780Z,88090.00
2023-05-11T07:51:18.577Z,88084.00
2023-05-11T07:52:18.587Z,88088.00
2023-05-11T07:53:18.677Z,88086.00
2023-05-11T07:54:20.260Z,88088.00
2023-05-11T07:55:18.935Z,88090.00
2023-05-11T07:56:18.618Z,88088.00
2023-05-11T07:57:18.595Z,88084.00
2023-05-11T07:58:18.586Z,88084.00
2023-05-11T07:59:18.631Z,88086.00
2023-05-11T08:00:18.865Z,88088.00
2023-05-11T08:01:18.657Z,88086.00
2023-05-11T08:02:18.567Z,88088.00
2023-05-11T08:03:18.593Z,88084.00
2023-05-11T08:04:18.592Z,88086.00
2023-05-11T08:05:18.690Z,88082.00
2023-05-11T08:06:18.622Z,88082.00
2023-05-11T08:07:18.562Z,88081.00
2023-05-11T08:08:18.570Z,88082.00
2023-05-11T08:09:18.567Z,88082.00
2023-05-11T08:10:18.627Z,88084.00
2023-05-11T08:11:18.681Z,88081.00
2023-05-11T08:12:18.577Z,88084.00
2023-05-11T08:13:18.652Z,88082.00
2023-05-11T08:14:18.597Z,88081.00
2023-05-11T08:15:18.712Z,88086.00
2023-05-11T08:16:18.608Z,88082.00
2023-05-11T08:17:18.548Z,88082.00
2023-05-11T08:18:18.562Z,88082.00
2023-05-11T08:19:18.561Z,88069.00
2023-05-11T08:20:18.566Z,88069.00
2023-05-11T08:21:18.643Z,88071.00
2023-05-11T08:22:18.627Z,88073.00
2023-05-11T08:23:18.699Z,88071.00
2023-05-11T08:24:18.732Z,88071.00
2023-05-11T08:25:19.379Z,88075.00
2023-05-11T08:26:18.870Z,88073.00
2023-05-11T08:27:18.913Z,88073.00
2023-05-11T08:28:19.012Z,88071.00
2023-05-11T08:29:19.047Z,88069.00
2023-05-11T08:30:19.202Z,88079.00
2023-05-11T08:31:19.200Z,88069.00
2023-05-11T08:32:19.273Z,88081.00
2023-05-11T08:33:35.914Z,88069.00
2023-05-11T08:34:20.546Z,88071.00
2023-05-11T08:35:19.463Z,88081.00
2023-05-11T08:36:19.225Z,88077.00
2023-05-11T08:37:19.192Z,88073.00
2023-05-11T08:38:19.202Z,88081.00
2023-05-11T08:39:28.604Z,88071.00
2023-05-11T08:40:20.199Z,88075.00
2023-05-11T08:41:19.187Z,88081.00
2023-05-11T08:42:19.168Z,88081.00
2023-05-11T08:43:19.168Z,88082.00
2023-05-11T08:44:19.165Z,88082.00
2023-05-11T08:45:19.341Z,88084.00
2023-05-11T08:46:19.271Z,88082.00
2023-05-11T08:47:23.447Z,88082.00
2023-05-11T08:48:19.179Z,88081.00
2023-05-11T08:49:19.134Z,88082.00
2023-05-11T08:50:19.175Z,88084.00
2023-05-11T08:51:19.156Z,88077.00
2023-05-11T08:52:19.177Z,88077.00
2023-05-11T08:53:19.155Z,88077.00
2023-05-11T08:54:19.150Z,88077.00
2023-05-11T08:55:19.297Z,88075.00
2023-05-11T08:56:19.189Z,88077.00
2023-05-11T08:57:19.208Z,88079.00
2023-05-11T08:58:19.164Z,88077.00
2023-05-11T08:59:19.165Z,88081.00
2023-05-11T09:00:19.170Z,88081.00
2023-05-11T09:01:19.293Z,88079.00
2023-05-11T09:02:19.194Z,88077.00
2023-05-11T09:03:19.255Z,88075.00
2023-05-11T09:04:19.303Z,88079.00
2023-05-11T09:05:19.422Z,88077.00
2023-05-11T09:06:19.347Z,88075.00
2023-05-11T09:07:19.406Z,88073.00
2023-05-11T09:08:19.416Z,88075.00
2023-05-11T09:09:19.477Z,88075.00
2023-05-11T09:10:19.420Z,88073.00
2023-05-11T09:11:19.423Z,88073.00
2023-05-11T09:12:19.466Z,88071.00
2023-05-11T09:13:19.426Z,88073.00
2023-05-11T09:14:19.573Z,88073.00
2023-05-11T09:15:19.619Z,88071.00
2023-05-11T09:16:32.935Z,88073.00
2023-05-11T09:17:21.268Z,88075.00
2023-05-11T09:18:19.523Z,88075.00
2023-05-11T09:19:20.239Z,88073.00
2023-05-11T09:20:19.637Z,88071.00
2023-05-11T09:21:19.405Z,88075.00
2023-05-11T09:22:20.222Z,88075.00
2023-05-11T09:23:19.361Z,88075.00
2023-05-11T09:24:19.358Z,88073.00
2023-05-11T09:25:19.603Z,88075.00
2023-05-11T09:26:19.422Z,88075.00
2023-05-11T09:27:21.682Z,88075.00
2023-05-11T09:29:20.470Z,88075.00
2023-05-11T09:30:23.260Z,88077.00
2023-05-11T09:31:19.475Z,88079.00
2023-05-11T09:32:20.245Z,88075.00
2023-05-11T09:33:20.207Z,88075.00
2023-05-11T09:34:19.478Z,88077.00
2023-05-11T09:35:19.596Z,88073.00
2023-05-11T09:36:19.453Z,88075.00
2023-05-11T09:37:19.473Z,88075.00
2023-05-11T09:38:19.474Z,88077.00
2023-05-11T09:40:33.272Z,88077.00
2023-05-11T09:41:23.223Z,88077.00
2023-05-11T09:42:19.464Z,88077.00
2023-05-11T09:43:19.401Z,88077.00
2023-05-11T09:44:19.430Z,88079.00
2023-05-11T09:45:19.693Z,88077.00
2023-05-11T09:46:19.644Z,88079.00
2023-05-11T09:47:19.422Z,88077.00
2023-05-11T09:48:19.464Z,88077.00
2023-05-11T09:49:19.438Z,88075.00
2023-05-11T09:50:26.382Z,88073.00
2023-05-11T09:51:20.390Z,88077.00
2023-05-11T09:52:19.752Z,88079.00
2023-05-11T09:53:19.384Z,88077.00
2023-05-11T09:54:19.658Z,88075.00
2023-05-11T09:55:19.674Z,88079.00
2023-05-11T09:56:19.414Z,88079.00
2023-05-11T09:57:19.364Z,88075.00
2023-05-11T09:58:19.433Z,88075.00
2023-05-11T09:59:19.399Z,88075.00
2023-05-11T10:00:19.431Z,88075.00
2023-05-11T10:01:19.502Z,88071.00
2023-05-11T10:02:19.785Z,88071.00
2023-05-11T10:03:19.618Z,88071.00
2023-05-11T10:04:23.414Z,88073.00
2023-05-11T10:05:19.751Z,88075.00
2023-05-11T10:06:20.476Z,88075.00
2023-05-11T10:07:19.584Z,88073.00
2023-05-11T10:08:19.613Z,88071.00
2023-05-11T10:09:19.584Z,88069.00
2023-05-11T10:10:19.709Z,88071.00
2023-05-11T10:11:19.581Z,88071.00
2023-05-11T10:12:19.587Z,88067.00
2023-05-11T10:13:19.569Z,88069.00
2023-05-11T10:14:19.666Z,88069.00
2023-05-11T10:15:19.876Z,88069.00
2023-05-11T10:16:19.580Z,88069.00
2023-05-11T10:17:19.562Z,88073.00
2023-05-11T10:18:20.454Z,88071.00
2023-05-11T10:19:19.647Z,88071.00
2023-05-11T10:20:19.803Z,88069.00
2023-05-11T10:21:19.695Z,88071.00
2023-05-11T10:22:19.823Z,88069.00
2023-05-11T10:23:19.790Z,88069.00
2023-05-11T10:24:20.710Z,88069.00
2023-05-11T10:25:19.847Z,88069.00
2023-05-11T10:26:20.012Z,88067.00
2023-05-11T10:27:19.893Z,88065.00
2023-05-11T10:28:19.843Z,88063.00
2023-05-11T10:29:19.872Z,88065.00
2023-05-11T10:30:19.893Z,88065.00
2023-05-11T10:31:19.883Z,88067.00
2023-05-11T10:32:20.322Z,88061.00
2023-05-11T10:33:19.832Z,88065.00
2023-05-11T10:34:19.867Z,88065.00
2023-05-11T10:35:19.867Z,88059.00
2023-05-11T10:36:20.011Z,88065.00
2023-05-11T10:37:19.867Z,88063.00
2023-05-11T10:38:19.834Z,88059.00
2023-05-11T10:39:19.850Z,88061.00
2023-05-11T10:40:20.025Z,88057.00
2023-05-11T10:41:19.787Z,88053.00
2023-05-11T10:42:19.843Z,88053.00
2023-05-11T10:43:19.802Z,88053.00
2023-05-11T10:44:19.822Z,88053.00
2023-05-11T10:45:19.864Z,88051.00
2023-05-11T10:46:19.911Z,88049.00
2023-05-11T10:47:19.790Z,88053.00
2023-05-11T10:48:19.749Z,88051.00
2023-05-11T10:49:19.738Z,88051.00
2023-05-11T10:50:19.978Z,88051.00
2023-05-11T10:51:19.823Z,88047.00
2023-05-11T10:52:19.709Z,88047.00
2023-05-11T10:53:19.813Z,88051.00
2023-05-11T10:54:19.819Z,88053.00
2023-05-11T10:55:20.001Z,88047.00
2023-05-11T10:56:20.369Z,88053.00
2023-05-11T10:57:19.746Z,88051.00
2023-05-11T10:58:19.992Z,88051.00
2023-05-11T10:59:19.716Z,88051.00
2023-05-11T11:00:19.954Z,88051.00
2023-05-11T11:01:19.749Z,88049.00
2023-05-11T11:02:19.691Z,88051.00
2023-05-11T11:03:19.748Z,88049.00
2023-05-11T11:04:19.690Z,88049.00
2023-05-11T11:05:20.499Z,88049.00
2023-05-11T11:06:19.698Z,88049.00
2023-05-11T11:07:19.805Z,88049.00
2023-05-11T11:08:19.632Z,88049.00
2023-05-11T11:09:19.646Z,88049.00
2023-05-11T11:10:19.777Z,88049.00
2023-05-11T11:11:19.634Z,88049.00
2023-05-11T11:12:19.748Z,88051.00
2023-05-11T11:13:19.763Z,88049.00
2023-05-11T11:14:19.828Z,88049.00
2023-05-11T11:15:20.105Z,88047.00
2023-05-11T11:16:20.030Z,88049.00
2023-05-11T11:17:20.125Z,88049.00
2023-05-11T11:18:20.167Z,88045.00
2023-05-11T11:19:20.158Z,88047.00
2023-05-11T11:20:20.134Z,88045.00
2023-05-11T11:21:20.207Z,88043.00
2023-05-11T11:22:20.248Z,88045.00
2023-05-11T11:23:20.316Z,88043.00
2023-05-11T11:24:20.317Z,88043.00
2023-05-11T11:25:20.495Z,88041.00
2023-05-11T11:26:20.451Z,88041.00
2023-05-11T11:27:20.484Z,88043.00
2023-05-11T11:28:20.581Z,88039.00
2023-05-11T11:29:20.585Z,88043.00
2023-05-11T11:30:20.641Z,88041.00
2023-05-11T11:31:20.707Z,88041.00
2023-05-11T11:32:20.746Z,88039.00
2023-05-11T11:33:20.845Z,88039.00
2023-05-11T11:34:20.823Z,88039.00
2023-05-11T11:35:20.913Z,88039.00
2023-05-11T11:36:20.943Z,88039.00
2023-05-11T11:37:21.004Z,88035.00
2023-05-11T11:38:21.067Z,88037.00
2023-05-11T11:39:21.056Z,88033.00
2023-05-11T11:40:21.130Z,88035.00
2023-05-11T11:41:21.129Z,88031.00
2023-05-11T11:42:21.124Z,88037.00
2023-05-11T11:43:21.139Z,88033.00
2023-05-11T11:44:21.071Z,88031.00
2023-05-11T11:45:21.057Z,88031.00
2023-05-11T11:46:21.066Z,88031.00